Time;durP1;ratioP1;P1;durP2;ratioP2;P2;SDS_P1;SDS_P2;PMS_P1;PMS_P2;Temp;Humidity;BMP_temperature;BMP_pressure;BME280_temperature;BME280_humidity;BME280_pressure;Samples;Min_cycle;Max_cycle;Signal;HPM_P1;HPM_P2
2023/05/27 00:00:14;;;;;;;10.20;6.37;;;14.30;99.90;;;;;;5027235;28;20190;-73
2023/05/27 00:02:40;;;;;;;13.13;6.20;;;14.20;99.90;;;;;;5030083;28;20676;-73
2023/05/27 00:05:06;;;;;;;11.60;7.03;;;14.30;99.90;;;;;;5029875;28;20992;-72
2023/05/27 00:07:31;;;;;;;7.07;5.87;;;14.30;99.90;;;;;;5031047;28;20186;-73
2023/05/27 00:09:57;;;;;;;12.53;6.17;;;14.30;99.90;;;;;;5029022;28;20265;-73
2023/05/27 00:12:23;;;;;;;8.13;6.00;;;14.30;99.90;;;;;;5029657;28;20602;-73
2023/05/27 00:14:48;;;;;;;13.10;7.70;;;14.40;99.90;;;;;;5027296;28;20449;-73
2023/05/27 00:17:14;;;;;;;13.17;6.63;;;14.50;99.90;;;;;;5030598;28;20186;-73
2023/05/27 00:19:47;;;;;;;9.47;6.27;;;14.60;99.90;;;;;;5030789;28;20175;-72
2023/05/27 00:22:13;;;;;;;9.73;7.00;;;14.50;99.90;;;;;;5027996;28;20206;-73
2023/05/27 00:24:39;;;;;;;7.67;6.97;;;14.50;99.90;;;;;;5028335;28;20497;-73
2023/05/27 00:27:08;;;;;;;8.70;5.77;;;14.50;99.90;;;;;;5030675;28;20174;-73
2023/05/27 00:29:35;;;;;;;10.60;6.83;;;14.50;99.90;;;;;;5032085;28;20806;-73
2023/05/27 00:32:05;;;;;;;7.70;6.60;;;14.40;99.90;;;;;;5031874;28;20436;-73
2023/05/27 00:34:34;;;;;;;12.13;5.70;;;14.40;99.90;;;;;;5033051;28;20447;-73
2023/05/27 00:37:00;;;;;;;10.30;6.53;;;14.40;99.90;;;;;;5031975;28;20452;-73
2023/05/27 00:39:25;;;;;;;13.10;6.30;;;14.20;99.90;;;;;;5034116;28;20506;-73
2023/05/27 00:41:51;;;;;;;9.43;6.50;;;14.20;99.90;;;;;;5033544;28;20214;-72
2023/05/27 00:44:17;;;;;;;7.77;5.77;;;14.00;99.90;;;;;;5033456;28;20330;-72
2023/05/27 00:46:47;;;;;;;8.97;7.27;;;13.90;99.90;;;;;;5031909;28;20198;-73
2023/05/27 00:49:13;;;;;;;10.23;6.50;;;13.90;99.90;;;;;;5031780;28;20441;-73
2023/05/27 00:51:39;;;;;;;7.50;6.10;;;13.80;99.90;;;;;;5033752;28;20439;-73
2023/05/27 00:54:05;;;;;;;10.93;6.10;;;13.80;99.90;;;;;;5016392;28;20275;-73
2023/05/27 00:56:31;;;;;;;7.83;7.13;;;13.80;99.90;;;;;;5031854;28;20655;-73
2023/05/27 00:58:57;;;;;;;12.27;6.77;;;13.80;99.90;;;;;;5033629;28;20451;-72
2023/05/27 01:01:25;;;;;;;11.40;7.03;;;13.80;99.90;;;;;;5033136;28;20273;-72
2023/05/27 01:03:52;;;;;;;10.50;7.27;;;13.80;99.90;;;;;;5033195;28;20812;-73
2023/05/27 01:06:30;;;;;;;9.80;6.47;;;13.80;99.90;;;;;;5031063;28;20443;-73
2023/05/27 01:09:05;;;;;;;11.47;6.90;;;13.80;99.90;;;;;;5032109;28;20490;-73
2023/05/27 01:12:10;;;;;;;10.00;7.37;;;13.80;99.90;;;;;;5033807;28;20440;-73
2023/05/27 01:14:38;;;;;;;8.00;6.43;;;13.80;99.90;;;;;;5031218;28;20551;-73
2023/05/27 01:17:06;;;;;;;12.20;6.17;;;13.60;99.90;;;;;;5031027;28;20455;-73
2023/05/27 01:19:37;;;;;;;10.73;7.00;;;13.60;99.90;;;;;;5026444;28;20437;-73
2023/05/27 01:22:04;;;;;;;10.63;7.23;;;13.60;99.90;;;;;;5026235;28;20806;-73
2023/05/27 01:24:30;;;;;;;11.00;7.27;;;13.60;99.90;;;;;;5032095;28;20508;-73
2023/05/27 01:26:56;;;;;;;9.73;5.70;;;13.60;99.90;;;;;;5031824;28;20534;-73
2023/05/27 01:29:22;;;;;;;9.43;6.90;;;13.70;99.90;;;;;;5032946;28;20846;-72
2023/05/27 01:32:24;;;;;;;10.90;6.23;;;13.80;99.90;;;;;;5032380;28;20217;-73
2023/05/27 01:34:59;;;;;;;7.77;6.30;;;13.80;99.90;;;;;;5031334;28;20849;-73
2023/05/27 01:37:31;;;;;;;11.60;6.30;;;13.70;99.90;;;;;;5029999;28;20471;-73
2023/05/27 01:39:57;;;;;;;17.20;6.00;;;13.60;99.90;;;;;;5032529;28;20445;-73
2023/05/27 01:42:23;;;;;;;8.40;6.13;;;13.60;99.90;;;;;;5032198;28;20486;-73
2023/05/27 01:44:50;;;;;;;8.37;5.70;;;13.60;99.90;;;;;;5031314;28;20433;-73
2023/05/27 01:47:15;;;;;;;9.00;6.03;;;13.50;99.90;;;;;;5032259;28;20193;-73
2023/05/27 01:49:41;;;;;;;8.97;5.60;;;13.50;99.90;;;;;;5031760;28;20930;-73
2023/05/27 01:52:08;;;;;;;7.97;5.37;;;13.50;99.90;;;;;;5030432;28;20566;-73
2023/05/27 01:54:34;;;;;;;8.90;5.70;;;13.40;99.90;;;;;;5033163;28;20261;-73
2023/05/27 01:57:00;;;;;;;9.70;6.07;;;13.30;99.90;;;;;;5032903;28;20858;-73
2023/05/27 01:59:26;;;;;;;11.13;5.60;;;13.20;99.90;;;;;;5030664;28;20277;-73
2023/05/27 02:01:51;;;;;;;9.37;5.40;;;13.20;99.90;;;;;;5023001;28;20556;-73
2023/05/27 02:04:17;;;;;;;7.17;5.63;;;13.00;99.90;;;;;;5032571;28;20202;-72
2023/05/27 02:06:43;;;;;;;10.03;6.37;;;12.90;99.90;;;;;;5031026;28;20190;-73
2023/05/27 02:09:10;;;;;;;12.40;6.37;;;13.00;99.90;;;;;;5027300;28;20186;-73
2023/05/27 02:11:36;;;;;;;11.17;6.60;;;13.00;99.90;;;;;;5032002;28;20193;-72
2023/05/27 02:14:02;;;;;;;9.20;6.00;;;12.90;99.90;;;;;;5031533;28;20476;-73
2023/05/27 02:16:28;;;;;;;9.30;6.30;;;12.90;99.90;;;;;;5030453;28;20210;-73
2023/05/27 02:18:54;;;;;;;10.73;5.80;;;13.00;99.90;;;;;;5031710;28;20465;-73
2023/05/27 02:21:19;;;;;;;8.57;5.50;;;13.10;99.90;;;;;;5030317;28;20205;-72
2023/05/27 02:23:45;;;;;;;7.20;4.87;;;13.10;99.90;;;;;;5031070;28;20590;-73
2023/05/27 02:26:10;;;;;;;12.33;6.10;;;13.00;99.90;;;;;;5031218;28;20521;-73
2023/05/27 02:28:36;;;;;;;6.63;5.27;;;12.90;99.90;;;;;;5030397;28;20189;-73
2023/05/27 02:31:02;;;;;;;10.37;5.73;;;12.80;99.90;;;;;;5030728;28;20261;-73
2023/05/27 02:33:27;;;;;;;9.17;5.53;;;12.70;99.90;;;;;;5031142;28;20206;-72
2023/05/27 02:35:53;;;;;;;9.63;6.57;;;12.60;99.90;;;;;;5032301;28;20555;-73
2023/05/27 02:38:18;;;;;;;7.57;5.33;;;12.60;99.90;;;;;;5027509;28;20213;-73
2023/05/27 02:40:44;;;;;;;10.00;6.10;;;12.50;99.90;;;;;;5022904;28;20547;-73
2023/05/27 02:43:10;;;;;;;9.43;5.97;;;12.50;99.90;;;;;;5030859;28;20210;-72
2023/05/27 02:45:36;;;;;;;10.93;6.00;;;12.50;99.90;;;;;;5030794;28;20705;-73
2023/05/27 02:48:02;;;;;;;16.70;6.37;;;12.50;99.90;;;;;;5028515;28;20429;-72
2023/05/27 02:50:27;;;;;;;8.80;5.33;;;12.50;99.90;;;;;;5030649;28;20193;-72
2023/05/27 02:52:53;;;;;;;10.43;5.63;;;12.50;99.90;;;;;;5028456;28;20660;-73
2023/05/27 02:55:19;;;;;;;6.87;6.07;;;12.40;99.90;;;;;;5031617;28;20185;-73
2023/05/27 02:57:45;;;;;;;10.93;5.20;;;12.40;99.90;;;;;;5030142;28;20281;-73
2023/05/27 03:00:13;;;;;;;7.20;5.43;;;12.30;99.90;;;;;;5031651;28;20655;-72
2023/05/27 03:02:38;;;;;;;10.93;5.83;;;12.30;99.90;;;;;;5028060;28;20495;-73
2023/05/27 03:05:04;;;;;;;9.10;5.73;;;12.30;99.90;;;;;;5028842;28;20436;-73
2023/05/27 03:07:30;;;;;;;9.60;4.90;;;12.30;99.90;;;;;;5030643;28;20612;-72
2023/05/27 03:09:56;;;;;;;10.60;5.57;;;12.30;99.90;;;;;;5027443;28;20185;-72
2023/05/27 03:12:22;;;;;;;9.00;6.03;;;12.20;99.90;;;;;;5023841;28;20200;-73
2023/05/27 03:14:48;;;;;;;13.20;5.47;;;12.30;99.90;;;;;;5015518;28;20432;-73
2023/05/27 03:17:14;;;;;;;15.60;7.57;;;12.40;99.90;;;;;;5030545;28;20574;-72
2023/05/27 03:19:39;;;;;;;9.60;5.73;;;12.50;99.90;;;;;;5031000;28;20918;-73
2023/05/27 03:22:06;;;;;;;6.43;5.30;;;12.40;99.90;;;;;;5026508;28;20226;-73
2023/05/27 03:24:32;;;;;;;10.60;6.50;;;12.40;99.90;;;;;;5030009;28;20320;-72
2023/05/27 03:26:59;;;;;;;12.53;6.00;;;12.20;99.90;;;;;;5030584;28;21011;-72
2023/05/27 03:29:25;;;;;;;14.20;7.00;;;12.10;99.90;;;;;;5027076;28;21016;-73
2023/05/27 03:31:50;;;;;;;10.77;6.80;;;12.00;99.90;;;;;;5030596;28;20579;-73
2023/05/27 03:34:16;;;;;;;11.23;5.50;;;11.90;99.90;;;;;;5012756;28;20206;-73
2023/05/27 03:36:45;;;;;;;11.67;5.90;;;11.90;99.90;;;;;;5031032;28;20182;-73
2023/05/27 03:39:11;;;;;;;12.27;5.80;;;11.90;99.90;;;;;;5028365;28;20275;-73
2023/05/27 03:41:37;;;;;;;6.43;5.10;;;11.90;99.90;;;;;;5029992;28;20465;-72
2023/05/27 03:44:02;;;;;;;7.60;5.97;;;11.90;99.90;;;;;;5025891;28;20538;-73
2023/05/27 03:46:28;;;;;;;10.70;5.40;;;12.00;99.90;;;;;;5028261;28;20197;-72
2023/05/27 03:48:53;;;;;;;10.70;7.20;;;11.90;99.90;;;;;;5028728;28;20178;-73
2023/05/27 03:51:20;;;;;;;11.70;6.63;;;11.90;99.90;;;;;;5027743;28;20240;-73
2023/05/27 03:53:46;;;;;;;14.17;5.60;;;11.80;99.90;;;;;;5029819;28;20225;-73
2023/05/27 03:56:11;;;;;;;10.40;5.03;;;11.70;99.90;;;;;;5029337;28;20519;-72
2023/05/27 03:58:37;;;;;;;6.97;5.70;;;11.70;99.90;;;;;;5022591;28;20265;-73
2023/05/27 04:01:03;;;;;;;8.50;5.97;;;11.70;99.90;;;;;;5031706;28;20198;-73
2023/05/27 04:03:29;;;;;;;8.63;5.30;;;11.60;99.90;;;;;;5031822;28;20206;-72
2023/05/27 04:05:56;;;;;;;7.40;5.40;;;11.80;99.90;;;;;;5030643;28;20208;-73
2023/05/27 04:08:22;;;;;;;11.63;6.07;;;11.80;99.90;;;;;;5036095;28;20182;-72
2023/05/27 04:10:48;;;;;;;9.57;6.27;;;11.80;99.90;;;;;;5037290;28;20440;-73
2023/05/27 04:13:13;;;;;;;7.90;6.77;;;11.90;99.90;;;;;;5034979;28;20225;-73
2023/05/27 04:15:39;;;;;;;11.13;6.57;;;11.90;99.90;;;;;;5035048;28;20550;-72
2023/05/27 04:18:04;;;;;;;7.00;5.07;;;12.00;99.90;;;;;;5037063;28;20563;-74
2023/05/27 04:20:41;;;;;;;10.90;5.80;;;12.10;99.90;;;;;;5037378;28;20562;-73
2023/05/27 04:23:07;;;;;;;8.80;6.47;;;12.20;99.90;;;;;;5038151;28;20204;-73
2023/05/27 04:25:34;;;;;;;9.10;5.53;;;12.30;99.90;;;;;;5036637;28;20436;-73
2023/05/27 04:28:00;;;;;;;13.70;5.90;;;12.40;99.90;;;;;;5034716;28;20570;-73
2023/05/27 04:30:25;;;;;;;14.90;5.80;;;12.40;99.90;;;;;;5036972;28;20435;-72
2023/05/27 04:32:52;;;;;;;9.87;5.40;;;12.40;99.90;;;;;;5036094;28;20202;-73
2023/05/27 04:35:17;;;;;;;14.20;6.43;;;12.60;99.90;;;;;;5034110;28;20214;-72
2023/05/27 04:37:44;;;;;;;8.93;6.83;;;12.60;99.90;;;;;;5034342;28;20436;-72
2023/05/27 04:40:10;;;;;;;9.67;5.60;;;12.80;99.90;;;;;;5035928;28;20197;-72
2023/05/27 04:42:36;;;;;;;7.70;5.10;;;12.80;99.90;;;;;;5033109;28;20551;-72
2023/05/27 04:45:06;;;;;;;8.63;6.23;;;13.00;99.90;;;;;;5036829;28;20528;-73
2023/05/27 04:47:36;;;;;;;11.10;5.70;;;13.30;99.90;;;;;;5035376;28;20205;-73
2023/05/27 04:50:06;;;;;;;12.90;5.70;;;13.20;99.90;;;;;;5035774;28;20443;-73
2023/05/27 04:52:36;;;;;;;10.33;5.67;;;13.40;99.90;;;;;;5036729;28;20462;-72
2023/05/27 04:55:06;;;;;;;8.67;5.87;;;13.60;99.90;;;;;;5034976;28;20437;-72
2023/05/27 04:57:32;;;;;;;10.50;6.47;;;13.80;99.90;;;;;;5036036;28;20483;-72
2023/05/27 05:02:39;;;;;;;8.20;5.50;;;14.10;99.90;;;;;;5035239;28;20525;-73
2023/05/27 05:05:06;;;;;;;11.10;6.10;;;14.10;99.90;;;;;;5036709;28;20436;-73
2023/05/27 05:07:33;;;;;;;12.70;5.53;;;14.20;99.90;;;;;;5036345;28;20448;-73
2023/05/27 05:09:59;;;;;;;10.10;6.03;;;14.20;99.90;;;;;;5034093;28;20444;-73
2023/05/27 05:12:27;;;;;;;16.37;6.47;;;14.30;99.90;;;;;;5033902;28;20471;-73
2023/05/27 05:14:53;;;;;;;10.70;5.30;;;14.50;99.90;;;;;;5033526;28;20436;-73
2023/05/27 05:17:19;;;;;;;8.83;6.23;;;14.60;99.90;;;;;;5032806;28;20995;-72
2023/05/27 05:19:45;;;;;;;10.37;6.83;;;14.70;99.90;;;;;;5032678;28;20186;-73
2023/05/27 05:22:13;;;;;;;12.50;5.90;;;14.80;99.90;;;;;;5033242;28;20462;-73
2023/05/27 05:24:39;;;;;;;10.77;6.40;;;15.10;99.90;;;;;;5030457;28;20186;-72
2023/05/27 05:27:06;;;;;;;12.40;6.40;;;15.30;99.90;;;;;;5032682;28;20448;-73
2023/05/27 05:29:32;;;;;;;10.50;5.50;;;15.30;99.90;;;;;;5031184;28;20178;-73
2023/05/27 05:31:57;;;;;;;13.00;5.40;;;15.40;99.90;;;;;;5033353;28;20815;-72
2023/05/27 05:34:23;;;;;;;14.17;6.03;;;15.50;99.90;;;;;;5022931;28;20252;-73
2023/05/27 05:36:48;;;;;;;6.60;5.77;;;15.60;99.90;;;;;;5029142;28;20182;-73
2023/05/27 05:39:15;;;;;;;13.13;7.70;;;15.70;99.90;;;;;;5031567;28;20189;-73
2023/05/27 05:41:40;;;;;;;6.23;5.00;;;15.80;99.90;;;;;;5033041;28;20201;-72
2023/05/27 05:44:06;;;;;;;15.07;7.70;;;15.90;99.90;;;;;;5030321;28;20483;-73
2023/05/27 05:46:31;;;;;;;10.57;7.60;;;16.00;99.90;;;;;;5029594;28;20644;-73
2023/05/27 05:48:57;;;;;;;11.30;5.97;;;16.20;99.90;;;;;;5032969;28;20644;-73
2023/05/27 05:51:22;;;;;;;14.40;8.50;;;16.30;99.90;;;;;;5028850;28;20192;-72
2023/05/27 05:53:48;;;;;;;10.03;5.50;;;16.30;99.90;;;;;;5031724;28;20202;-73
2023/05/27 05:56:13;;;;;;;9.90;6.23;;;16.30;99.90;;;;;;5030462;28;20837;-73
2023/05/27 05:58:39;;;;;;;12.83;6.53;;;16.40;99.90;;;;;;5030936;28;20244;-73
2023/05/27 06:01:05;;;;;;;9.70;5.73;;;16.50;99.90;;;;;;5030223;28;20228;-72
2023/05/27 06:03:31;;;;;;;12.13;7.03;;;16.60;99.90;;;;;;5030763;28;20268;-72
2023/05/27 06:05:56;;;;;;;9.03;6.20;;;16.70;99.90;;;;;;5030764;28;20432;-74
2023/05/27 06:08:22;;;;;;;11.20;6.30;;;16.80;99.90;;;;;;5023944;28;20236;-73
2023/05/27 06:10:47;;;;;;;11.10;5.80;;;16.80;99.90;;;;;;5027409;28;20702;-73
2023/05/27 06:13:13;;;;;;;11.30;6.87;;;16.90;99.90;;;;;;5032250;28;20217;-73
2023/05/27 06:15:38;;;;;;;14.03;7.00;;;17.00;99.90;;;;;;5032695;28;20253;-72
2023/05/27 06:18:05;;;;;;;12.03;6.00;;;17.10;99.90;;;;;;5029587;28;20602;-74
2023/05/27 06:20:30;;;;;;;13.17;6.30;;;17.20;99.90;;;;;;5031373;28;20178;-73
2023/05/27 06:22:56;;;;;;;10.30;5.93;;;17.40;99.90;;;;;;5031780;28;20882;-73
2023/05/27 06:25:21;;;;;;;11.07;5.97;;;17.50;99.90;;;;;;5032374;28;20186;-73
2023/05/27 06:27:47;;;;;;;10.67;5.90;;;17.60;99.90;;;;;;5031391;28;20648;-74
2023/05/27 06:30:13;;;;;;;12.43;5.97;;;17.60;99.90;;;;;;5030524;28;20184;-73
2023/05/27 06:32:39;;;;;;;8.30;6.40;;;17.60;99.90;;;;;;5029567;28;20220;-73
2023/05/27 06:35:05;;;;;;;8.00;5.50;;;17.70;99.90;;;;;;5031036;28;20448;-73
2023/05/27 06:37:30;;;;;;;11.80;6.43;;;17.70;99.90;;;;;;5024700;28;20193;-72
2023/05/27 06:39:56;;;;;;;8.23;5.87;;;17.80;99.90;;;;;;5031619;28;20186;-73
2023/05/27 06:42:22;;;;;;;10.67;6.23;;;17.90;99.90;;;;;;5031639;28;20241;-75
2023/05/27 06:44:48;;;;;;;8.97;6.37;;;17.90;99.90;;;;;;5023498;28;20207;-73
2023/05/27 06:47:14;;;;;;;13.33;6.63;;;17.90;99.90;;;;;;5029644;28;20447;-72
2023/05/27 06:49:39;;;;;;;9.37;6.27;;;18.10;99.90;;;;;;5030193;28;20969;-73
2023/05/27 06:52:05;;;;;;;9.63;6.00;;;18.30;99.90;;;;;;5028746;28;20186;-73
2023/05/27 06:54:31;;;;;;;11.83;6.17;;;18.40;99.90;;;;;;5028806;28;20634;-73
2023/05/27 06:56:56;;;;;;;7.57;5.33;;;18.60;99.90;;;;;;5030163;28;20256;-73
2023/05/27 06:59:22;;;;;;;9.43;5.57;;;18.60;99.90;;;;;;5029099;28;20174;-71
2023/05/27 07:01:48;;;;;;;7.33;5.43;;;18.40;99.90;;;;;;5022802;28;20202;-71
2023/05/27 07:04:13;;;;;;;11.83;6.23;;;18.50;99.90;;;;;;5008577;28;20216;-71
2023/05/27 07:06:39;;;;;;;10.77;6.10;;;18.50;99.90;;;;;;5024060;28;20179;-72
2023/05/27 07:09:04;;;;;;;12.77;6.67;;;18.80;99.90;;;;;;5027729;28;20182;-72
2023/05/27 07:11:31;;;;;;;12.73;6.70;;;18.90;99.90;;;;;;5025555;28;20252;-71
2023/05/27 07:13:57;;;;;;;13.33;6.10;;;19.20;99.90;;;;;;5019361;28;20272;-71
2023/05/27 07:16:22;;;;;;;12.20;5.73;;;19.30;99.90;;;;;;5020456;28;20441;-72
2023/05/27 07:18:48;;;;;;;6.87;5.50;;;19.30;99.90;;;;;;5022355;28;20212;-73
2023/05/27 07:21:13;;;;;;;11.10;6.13;;;19.50;99.90;;;;;;5023951;28;20194;-71
2023/05/27 07:23:39;;;;;;;9.27;6.27;;;19.60;99.90;;;;;;5024671;28;20275;-72
2023/05/27 07:26:04;;;;;;;13.07;6.10;;;19.70;99.90;;;;;;5029123;28;20178;-74
2023/05/27 07:28:30;;;;;;;10.73;6.83;;;19.80;99.80;;;;;;5025557;28;20181;-73
2023/05/27 07:30:56;;;;;;;12.00;6.10;;;19.90;99.80;;;;;;5027383;28;20178;-73
2023/05/27 07:33:21;;;;;;;8.90;5.50;;;20.00;99.10;;;;;;5028194;28;20202;-75
2023/05/27 07:35:47;;;;;;;10.10;6.50;;;20.10;99.10;;;;;;5022987;28;20273;-72
2023/05/27 07:38:12;;;;;;;11.50;6.00;;;20.10;98.60;;;;;;5024332;28;20189;-72
2023/05/27 07:40:38;;;;;;;13.10;6.90;;;20.10;98.20;;;;;;5027178;28;20194;-72
2023/05/27 07:43:03;;;;;;;7.57;6.23;;;20.20;98.00;;;;;;5027111;28;20206;-72
2023/05/27 07:45:30;;;;;;;9.27;5.70;;;20.20;97.40;;;;;;5019414;28;20186;-72
2023/05/27 07:47:55;;;;;;;14.60;5.87;;;20.30;97.70;;;;;;5021672;28;20186;-72
2023/05/27 07:50:21;;;;;;;11.87;6.00;;;20.20;97.50;;;;;;5023961;28;20473;-72
2023/05/27 07:52:46;;;;;;;10.60;6.20;;;20.50;97.50;;;;;;5025103;28;20705;-71
2023/05/27 07:55:12;;;;;;;13.50;6.30;;;20.60;96.40;;;;;;5025262;28;20182;-72
2023/05/27 07:57:38;;;;;;;11.33;6.30;;;20.80;95.90;;;;;;5027915;28;20201;-74
2023/05/27 08:00:06;;;;;;;10.73;6.13;;;20.80;95.50;;;;;;5028908;28;20189;-74
2023/05/27 08:02:32;;;;;;;14.07;6.27;;;20.90;95.40;;;;;;5023104;28;20270;-74
2023/05/27 08:04:57;;;;;;;9.20;5.93;;;21.00;94.60;;;;;;5028076;28;20506;-71
2023/05/27 08:07:23;;;;;;;8.77;7.00;;;21.20;94.10;;;;;;5029777;28;20281;-70
2023/05/27 08:09:48;;;;;;;10.70;6.07;;;21.50;93.80;;;;;;5026776;28;20173;-70
2023/05/27 08:12:14;;;;;;;10.80;5.60;;;21.70;93.50;;;;;;5031385;28;20193;-71
2023/05/27 08:14:40;;;;;;;8.30;5.57;;;21.70;92.70;;;;;;5031798;28;20205;-71
2023/05/27 08:17:06;;;;;;;9.10;6.70;;;21.90;93.10;;;;;;5031748;28;20659;-70
2023/05/27 08:19:31;;;;;;;13.03;5.90;;;22.10;92.40;;;;;;5031496;28;20421;-70
2023/05/27 08:21:57;;;;;;;7.30;5.97;;;22.30;91.70;;;;;;5031455;28;20277;-70
2023/05/27 08:24:23;;;;;;;10.27;6.53;;;22.50;90.90;;;;;;5031562;28;20194;-70
2023/05/27 08:26:49;;;;;;;11.17;6.30;;;22.50;90.60;;;;;;5031883;28;20194;-70
2023/05/27 08:29:15;;;;;;;9.17;6.07;;;22.50;91.00;;;;;;5031357;28;20424;-70
2023/05/27 08:31:41;;;;;;;8.33;5.07;;;22.50;90.20;;;;;;5031296;28;20432;-70
2023/05/27 08:34:06;;;;;;;8.53;7.03;;;22.70;88.60;;;;;;5031394;28;20264;-71
2023/05/27 08:36:32;;;;;;;12.67;6.30;;;22.90;88.10;;;;;;5031705;28;20179;-70
2023/05/27 08:38:58;;;;;;;12.37;7.27;;;23.00;86.50;;;;;;5031123;28;20167;-70
2023/05/27 08:41:26;;;;;;;10.77;5.97;;;23.10;85.50;;;;;;5031456;28;20453;-70
2023/05/27 08:43:52;;;;;;;9.67;6.47;;;23.20;86.20;;;;;;5031614;28;20194;-65
2023/05/27 08:46:19;;;;;;;8.10;6.10;;;23.50;85.80;;;;;;5031349;28;20471;-66
2023/05/27 08:48:44;;;;;;;14.40;7.30;;;23.60;83.70;;;;;;5030913;28;20173;-66
2023/05/27 08:51:10;;;;;;;7.47;6.53;;;23.50;83.00;;;;;;5033748;28;20416;-70
2023/05/27 08:53:36;;;;;;;18.03;7.70;;;23.70;83.00;;;;;;5035031;28;20189;-70
2023/05/27 08:56:03;;;;;;;8.60;6.20;;;23.90;82.30;;;;;;5035073;28;20910;-70
2023/05/27 08:58:30;;;;;;;7.13;5.43;;;23.90;79.90;;;;;;5014961;28;20167;-70
2023/05/27 09:00:56;;;;;;;9.13;5.83;;;24.00;79.30;;;;;;5015042;28;20426;-69
2023/05/27 09:03:22;;;;;;;8.37;6.97;;;24.10;78.80;;;;;;5014983;28;20532;-70
2023/05/27 09:05:48;;;;;;;12.90;6.40;;;23.90;77.40;;;;;;5015790;28;20417;-69
2023/05/27 09:08:14;;;;;;;10.00;6.70;;;23.90;79.60;;;;;;5014888;28;20429;-70
2023/05/27 09:10:42;;;;;;;10.03;7.50;;;24.20;79.10;;;;;;5025399;28;20171;-70
2023/05/27 09:13:08;;;;;;;9.90;5.60;;;24.30;76.90;;;;;;5024603;28;20217;-71
2023/05/27 09:15:34;;;;;;;9.60;6.50;;;24.20;77.90;;;;;;5014908;28;20436;-69
2023/05/27 09:18:01;;;;;;;10.17;6.90;;;24.40;77.10;;;;;;5014832;28;20167;-69
2023/05/27 09:20:27;;;;;;;9.80;6.13;;;24.60;75.60;;;;;;5017944;28;20448;-70
2023/05/27 09:23:01;;;;;;;7.47;5.70;;;24.90;75.90;;;;;;5034652;28;20543;-70
2023/05/27 09:25:27;;;;;;;13.00;7.57;;;25.20;74.80;;;;;;5034516;28;20417;-70
2023/05/27 09:27:54;;;;;;;7.93;5.97;;;25.40;72.80;;;;;;5034435;28;20421;-70
2023/05/27 09:30:21;;;;;;;7.20;6.03;;;25.80;73.20;;;;;;5034119;28;20420;-70
2023/05/27 09:32:47;;;;;;;8.73;5.90;;;26.00;69.50;;;;;;5033579;28;20883;-70
2023/05/27 09:35:14;;;;;;;8.30;6.93;;;26.40;70.10;;;;;;5034654;28;20424;-70
2023/05/27 09:37:40;;;;;;;13.07;7.10;;;26.70;67.40;;;;;;5034408;28;20532;-70
2023/05/27 09:40:12;;;;;;;9.90;6.43;;;26.90;65.70;;;;;;5034163;28;20946;-70
2023/05/27 09:42:45;;;;;;;9.20;6.40;;;27.30;65.90;;;;;;5034303;28;20233;-70
2023/05/27 09:45:18;;;;;;;15.90;5.80;;;28.10;62.90;;;;;;5034205;28;20835;-70
2023/05/27 09:47:47;;;;;;;8.13;6.57;;;28.50;60.20;;;;;;5034494;28;20463;-70
2023/05/27 09:50:16;;;;;;;9.40;7.33;;;27.80;60.50;;;;;;5033871;28;20918;-70
2023/05/27 09:52:43;;;;;;;9.73;6.67;;;28.00;59.40;;;;;;5034151;28;20441;-70
2023/05/27 09:55:11;;;;;;;10.93;7.07;;;28.80;58.80;;;;;;5034130;28;20494;-70
2023/05/27 09:57:37;;;;;;;11.80;6.50;;;29.20;57.50;;;;;;5034076;28;20467;-70
2023/05/27 10:00:11;;;;;;;10.63;7.20;;;29.60;56.80;;;;;;5033610;28;20421;-70
2023/05/27 10:02:38;;;;;;;9.23;6.60;;;29.70;55.60;;;;;;5033557;28;20221;-70
2023/05/27 10:05:07;;;;;;;9.30;6.73;;;30.20;53.70;;;;;;5033983;28;21066;-70
2023/05/27 10:07:38;;;;;;;7.97;6.40;;;30.80;53.50;;;;;;5033963;28;20426;-70
2023/05/27 10:10:11;;;;;;;9.00;7.90;;;31.10;53.00;;;;;;5033600;28;20420;-70
2023/05/27 10:12:42;;;;;;;9.37;7.77;;;31.40;51.80;;;;;;5033598;28;20460;-70
2023/05/27 10:15:08;;;;;;;10.23;7.50;;;31.60;49.90;;;;;;5033905;28;20475;-70
2023/05/27 10:17:42;;;;;;;11.93;7.53;;;31.90;49.20;;;;;;5033752;28;20516;-70
2023/05/27 10:20:08;;;;;;;7.03;6.30;;;32.10;49.10;;;;;;5033383;28;20425;-70
2023/05/27 10:22:45;;;;;;;8.57;7.30;;;32.70;47.70;;;;;;5033471;28;20585;-71
2023/05/27 10:25:14;;;;;;;7.23;6.17;;;32.20;47.70;;;;;;5033641;28;20162;-70
2023/05/27 10:27:47;;;;;;;6.63;6.07;;;32.10;46.90;;;;;;5033593;28;20478;-70
2023/05/27 10:30:16;;;;;;;7.53;6.73;;;32.80;46.70;;;;;;5033217;28;20826;-70
2023/05/27 10:32:51;;;;;;;8.93;7.23;;;33.40;45.10;;;;;;5033385;28;20444;-70
2023/05/27 10:35:17;;;;;;;10.00;7.70;;;33.60;45.20;;;;;;5033318;28;20428;-70
2023/05/27 10:37:43;;;;;;;8.33;7.53;;;34.00;43.60;;;;;;5033284;28;20475;-70
2023/05/27 10:40:09;;;;;;;8.20;6.47;;;34.70;42.20;;;;;;5032943;28;20201;-71
2023/05/27 10:42:35;;;;;;;8.80;6.83;;;35.00;41.50;;;;;;5033125;28;20468;-70
2023/05/27 10:45:11;;;;;;;7.33;6.57;;;34.90;41.10;;;;;;5033172;28;20970;-70
2023/05/27 10:47:37;;;;;;;10.07;6.90;;;34.30;40.30;;;;;;5015377;28;20425;-71
2023/05/27 10:50:13;;;;;;;9.83;7.40;;;34.40;40.80;;;;;;5032783;28;20416;-71
2023/05/27 10:52:39;;;;;;;9.20;7.10;;;34.80;40.30;;;;;;5033063;28;20510;-70
2023/05/27 10:55:06;;;;;;;8.63;7.77;;;34.60;39.40;;;;;;5032952;28;20425;-70
2023/05/27 10:57:32;;;;;;;7.80;7.00;;;34.90;39.30;;;;;;5032958;28;20787;-68
2023/05/27 11:00:03;;;;;;;7.90;7.10;;;35.00;38.50;;;;;;5032598;28;20451;-68
2023/05/27 11:02:35;;;;;;;7.53;6.73;;;36.10;38.40;;;;;;5032608;28;20267;-68
2023/05/27 11:05:00;;;;;;;8.33;6.87;;;36.90;36.60;;;;;;5032797;28;20788;-68
2023/05/27 11:07:26;;;;;;;9.63;7.70;;;36.40;36.20;;;;;;5032643;28;20425;-68
2023/05/27 11:09:53;;;;;;;7.27;6.60;;;36.70;35.90;;;;;;5032436;28;20227;-68
2023/05/27 11:12:20;;;;;;;7.57;6.77;;;37.60;35.10;;;;;;5032085;28;20648;-68
2023/05/27 11:14:51;;;;;;;7.20;6.47;;;37.60;34.30;;;;;;5032777;28;20939;-67
2023/05/27 11:17:18;;;;;;;7.83;7.00;;;36.70;34.50;;;;;;5032619;28;20427;-67
2023/05/27 11:19:45;;;;;;;7.23;6.40;;;36.50;34.80;;;;;;5032287;28;20416;-67
2023/05/27 11:22:12;;;;;;;8.80;6.10;;;35.30;35.70;;;;;;5032263;28;20468;-69
2023/05/27 11:24:38;;;;;;;7.10;6.40;;;36.00;35.50;;;;;;5032555;28;20505;-70
2023/05/27 11:27:11;;;;;;;6.97;6.27;;;35.90;35.90;;;;;;5032358;28;20968;-70
2023/05/27 11:29:37;;;;;;;8.47;6.67;;;36.70;34.80;;;;;;5032142;28;20498;-70
2023/05/27 11:32:05;;;;;;;8.43;7.73;;;37.70;33.50;;;;;;5032311;28;20425;-70
2023/05/27 11:34:34;;;;;;;6.70;6.20;;;38.60;32.30;;;;;;5032439;28;20425;-70
2023/05/27 11:37:07;;;;;;;7.20;6.53;;;38.20;32.00;;;;;;5032405;28;20428;-70
2023/05/27 11:39:32;;;;;;;8.40;7.03;;;38.70;31.20;;;;;;5032017;28;20429;-69
2023/05/27 11:41:58;;;;;;;7.50;6.83;;;38.30;31.80;;;;;;5032083;28;20507;-70
2023/05/27 11:44:25;;;;;;;7.53;6.83;;;38.50;31.20;;;;;;5032172;28;20219;-69
2023/05/27 11:46:58;;;;;;;7.37;6.67;;;38.20;31.50;;;;;;5032225;28;20167;-70
2023/05/27 11:49:23;;;;;;;9.53;6.80;;;39.20;30.50;;;;;;5031869;28;20443;-70
2023/05/27 11:51:49;;;;;;;8.17;7.30;;;39.00;30.50;;;;;;5032159;28;20926;-70
2023/05/27 11:54:25;;;;;;;7.60;7.00;;;37.50;30.40;;;;;;5031867;28;20226;-69
2023/05/27 11:56:52;;;;;;;8.07;7.27;;;37.70;31.00;;;;;;5032045;28;20432;-70
2023/05/27 11:59:19;;;;;;;8.53;7.30;;;38.50;30.10;;;;;;5031826;28;20429;-70
2023/05/27 12:01:45;;;;;;;7.63;6.93;;;38.80;29.80;;;;;;5031859;28;20498;-69
2023/05/27 12:04:11;;;;;;;7.40;6.30;;;37.90;30.00;;;;;;5031927;28;20437;-69
2023/05/27 12:06:38;;;;;;;7.90;6.60;;;38.20;30.10;;;;;;5031913;28;20421;-70
2023/05/27 12:09:05;;;;;;;7.20;6.50;;;38.80;29.90;;;;;;5031509;28;20428;-67
2023/05/27 12:11:34;;;;;;;9.43;7.40;;;38.80;29.80;;;;;;5031768;28;20452;-67
2023/05/27 12:14:00;;;;;;;7.27;6.57;;;38.80;29.70;;;;;;5031661;28;20460;-66
2023/05/27 12:16:25;;;;;;;7.10;6.43;;;39.10;29.40;;;;;;5031843;28;20429;-67
2023/05/27 12:18:51;;;;;;;9.47;6.30;;;36.60;30.40;;;;;;5031477;28;20421;-69
2023/05/27 12:21:17;;;;;;;7.47;6.70;;;37.00;30.10;;;;;;5031693;28;20202;-70
2023/05/27 12:23:43;;;;;;;8.97;7.40;;;37.50;30.10;;;;;;5032027;28;20191;-69
2023/05/27 12:26:10;;;;;;;8.40;7.60;;;38.60;29.70;;;;;;5035749;28;20518;-69
2023/05/27 12:28:36;;;;;;;10.80;8.23;;;39.10;29.30;;;;;;5035467;28;20174;-69
2023/05/27 12:31:01;;;;;;;7.27;6.57;;;38.80;28.50;;;;;;5035722;28;20425;-69
2023/05/27 12:33:27;;;;;;;8.20;6.60;;;38.20;29.00;;;;;;5035599;28;20939;-69
2023/05/27 12:35:52;;;;;;;9.50;7.47;;;38.30;28.80;;;;;;5035588;28;20264;-69
2023/05/27 12:38:18;;;;;;;9.73;8.70;;;38.70;28.50;;;;;;5035175;28;20197;-70
2023/05/27 12:40:44;;;;;;;8.63;7.73;;;39.10;28.70;;;;;;5035471;28;20624;-69
2023/05/27 12:43:10;;;;;;;8.70;7.80;;;39.50;28.20;;;;;;5035481;28;20210;-69